createdAt,value
2017-12-24T00:02:02.354Z,15.25
2017-12-24T00:04:30.580Z,15.23
2017-12-24T00:06:58.069Z,15.43
2017-12-24T00:09:25.545Z,14.85
2017-12-24T00:11:53.814Z,17.10
2017-12-24T00:14:21.282Z,16.20
2017-12-24T00:16:49.517Z,14.73
2017-12-24T00:19:16.984Z,15.88
2017-12-24T00:21:44.467Z,16.05
2017-12-24T00:24:12.714Z,17.15
2017-12-24T00:26:40.173Z,14.85
2017-12-24T00:29:07.648Z,16.20
2017-12-24T00:31:35.113Z,16.52
2017-12-24T00:34:03.349Z,15.80
2017-12-24T00:36:30.821Z,16.45
2017-12-24T00:38:59.818Z,15.43
2017-12-24T00:41:27.286Z,16.98
2017-12-24T00:43:54.833Z,16.12
2017-12-24T00:46:22.389Z,15.20
2017-12-24T00:48:49.866Z,16.65
2017-12-24T00:51:18.112Z,17.35
2017-12-24T00:53:45.583Z,16.52
2017-12-24T00:56:13.065Z,16.05
2017-12-24T00:58:41.298Z,16.60
2017-12-24T01:01:08.824Z,16.67
2017-12-24T01:03:36.293Z,16.55
2017-12-24T01:06:04.514Z,14.73
2017-12-24T01:08:31.987Z,17.40
2017-12-24T01:11:00.237Z,16.67
2017-12-24T01:13:28.464Z,15.70
2017-12-24T01:15:55.945Z,13.88
2017-12-24T01:18:23.413Z,16.10
2017-12-24T01:20:50.983Z,15.13
2017-12-24T01:23:18.536Z,14.10
2017-12-24T01:25:46.014Z,14.23
2017-12-24T01:28:14.274Z,14.35
2017-12-24T01:30:41.750Z,13.02
2017-12-24T01:33:09.998Z,14.60
2017-12-24T01:35:37.452Z,13.30
2017-12-24T01:38:05.007Z,13.05
2017-12-24T01:40:33.250Z,12.80
2017-12-24T01:43:00.750Z,11.30
2017-12-24T01:45:28.304Z,12.25
2017-12-24T01:47:55.785Z,13.43
2017-12-24T01:50:24.004Z,12.63
2017-12-24T01:52:51.472Z,13.13
2017-12-24T01:55:18.948Z,12.73
2017-12-24T01:57:46.419Z,12.20
2017-12-24T02:00:14.681Z,12.23
2017-12-24T02:02:42.302Z,14.15
2017-12-24T02:05:09.778Z,11.88
2017-12-24T02:07:37.232Z,11.65
2017-12-24T02:10:04.696Z,13.00
2017-12-24T02:12:32.169Z,12.48
2017-12-24T02:14:59.644Z,11.70
2017-12-24T02:17:27.904Z,13.75
2017-12-24T02:19:55.464Z,12.13
2017-12-24T02:22:22.924Z,11.75
2017-12-24T02:24:50.537Z,12.02
2017-12-24T02:27:18.048Z,13.10
2017-12-24T02:29:45.656Z,11.75
2017-12-24T02:32:13.111Z,12.63
2017-12-24T02:34:40.586Z,13.02
2017-12-24T02:37:08.068Z,12.05
2017-12-24T02:39:35.525Z,11.80
2017-12-24T02:42:03.120Z,11.95
2017-12-24T02:44:31.350Z,13.15
2017-12-24T02:46:58.826Z,12.98
2017-12-24T02:49:26.440Z,12.85
2017-12-24T02:51:53.907Z,11.52
2017-12-24T02:54:21.366Z,13.27
2017-12-24T02:56:48.839Z,12.40
2017-12-24T02:59:16.294Z,12.15
2017-12-24T03:01:43.783Z,12.82
2017-12-24T03:04:12.012Z,10.55
2017-12-24T03:06:39.484Z,14.50
2017-12-24T03:09:07.049Z,12.70
2017-12-24T03:11:34.517Z,13.02
2017-12-24T03:14:01.975Z,14.05
2017-12-24T03:16:29.439Z,12.30
2017-12-24T03:18:57.672Z,13.73
2017-12-24T03:21:25.139Z,12.23
2017-12-24T03:23:52.704Z,13.38
2017-12-24T03:26:20.160Z,11.55
2017-12-24T03:28:47.632Z,12.75
2017-12-24T03:31:15.246Z,11.45
2017-12-24T03:33:42.656Z,14.52
2017-12-24T03:36:10.192Z,12.88
2017-12-24T03:38:37.656Z,12.37
2017-12-24T03:41:05.204Z,12.15
2017-12-24T03:43:32.678Z,12.55
2017-12-24T03:46:00.223Z,12.05
2017-12-24T03:48:27.702Z,12.98
2017-12-24T03:50:55.927Z,11.82
2017-12-24T03:53:23.407Z,11.12
2017-12-24T03:55:50.934Z,11.82
2017-12-24T03:58:18.351Z,10.38
2017-12-24T04:00:45.804Z,10.68
2017-12-24T04:03:14.032Z,10.30
2017-12-24T04:05:41.499Z,12.60
2017-12-24T04:08:08.970Z,11.32
2017-12-24T04:10:36.446Z,11.20
2017-12-24T04:13:04.680Z,11.23
2017-12-24T04:15:32.157Z,11.30
2017-12-24T04:17:59.720Z,10.85
2017-12-24T04:20:27.274Z,9.65
2017-12-24T04:22:54.736Z,11.30
2017-12-24T04:25:22.201Z,11.02
2017-12-24T04:27:49.752Z,10.45
2017-12-24T04:30:17.216Z,10.52
2017-12-24T04:32:44.777Z,12.45
2017-12-24T04:35:12.329Z,11.15
2017-12-24T04:37:39.884Z,11.90
2017-12-24T04:40:07.445Z,8.85
2017-12-24T04:42:34.921Z,11.20
2017-12-24T04:45:02.389Z,11.40
2017-12-24T04:47:30.612Z,10.93
2017-12-24T04:49:58.099Z,10.75
2017-12-24T04:52:25.559Z,12.93
2017-12-24T04:54:53.879Z,12.00
2017-12-24T04:57:21.345Z,11.77
2017-12-24T04:59:48.803Z,11.12
2017-12-24T05:02:16.290Z,11.35
2017-12-24T05:04:43.750Z,10.43
2017-12-24T05:07:11.231Z,13.30
2017-12-24T05:09:39.482Z,11.55
2017-12-24T05:12:07.041Z,11.98
2017-12-24T05:14:34.517Z,12.50
2017-12-24T05:17:02.777Z,11.10
2017-12-24T05:19:30.254Z,13.43
2017-12-24T05:21:58.487Z,13.90
2017-12-24T05:24:26.068Z,11.23
2017-12-24T05:26:53.582Z,12.18
2017-12-24T05:29:21.093Z,13.38
2017-12-24T05:31:48.544Z,13.48
2017-12-24T05:34:16.027Z,11.60
2017-12-24T05:36:44.259Z,12.68
2017-12-24T05:39:11.837Z,12.02
2017-12-24T05:41:40.078Z,12.50
2017-12-24T05:44:07.618Z,12.65
2017-12-24T05:46:35.085Z,10.40
2017-12-24T05:49:02.543Z,14.40
2017-12-24T05:51:30.017Z,14.23
2017-12-24T05:53:58.003Z,11.55
2017-12-24T05:56:25.556Z,12.52
2017-12-24T05:58:53.832Z,11.73
2017-12-24T06:01:21.398Z,13.73
2017-12-24T06:03:48.860Z,13.15
2017-12-24T06:06:16.334Z,13.18
2017-12-24T06:08:44.564Z,14.02
2017-12-24T06:11:12.025Z,14.13
2017-12-24T06:13:39.480Z,13.93
2017-12-24T06:16:06.952Z,12.20
2017-12-24T06:18:34.422Z,11.60
2017-12-24T06:21:01.915Z,11.25
2017-12-24T06:23:29.368Z,12.20
2017-12-24T06:25:56.827Z,12.75
2017-12-24T06:28:24.306Z,13.70
2017-12-24T06:30:51.801Z,13.07
2017-12-24T06:33:19.276Z,12.50
2017-12-24T06:35:47.511Z,12.77
2017-12-24T06:38:14.984Z,12.50
2017-12-24T06:40:42.454Z,14.23
2017-12-24T06:43:10.729Z,12.95
2017-12-24T06:45:38.264Z,12.48
2017-12-24T06:48:05.756Z,14.07
2017-12-24T06:50:33.985Z,11.80
2017-12-24T06:53:01.462Z,12.35
2017-12-24T06:55:28.919Z,13.43
2017-12-24T06:57:56.392Z,14.10
2017-12-24T07:00:24.640Z,12.90
2017-12-24T07:02:52.103Z,12.37
2017-12-24T07:05:19.569Z,11.95
2017-12-24T07:07:48.546Z,14.48
2017-12-24T07:10:16.008Z,11.93
2017-12-24T07:12:43.487Z,13.07
2017-12-24T07:15:11.744Z,12.85
2017-12-24T07:17:39.212Z,14.50
2017-12-24T07:20:07.444Z,13.77
2017-12-24T07:22:34.916Z,12.73
2017-12-24T07:25:02.552Z,12.10
2017-12-24T07:27:30.069Z,11.98
2017-12-24T07:29:57.527Z,13.07
2017-12-24T07:32:25.806Z,13.25
2017-12-24T07:34:54.060Z,11.77
2017-12-24T07:37:22.344Z,13.75
2017-12-24T07:39:49.893Z,15.30
2017-12-24T07:42:17.459Z,14.43
2017-12-24T07:44:44.922Z,13.98
2017-12-24T07:47:13.149Z,12.90
2017-12-24T07:49:40.663Z,12.88
2017-12-24T07:52:08.887Z,13.27
2017-12-24T07:54:36.346Z,13.98
2017-12-24T07:57:03.817Z,11.57
2017-12-24T07:59:31.343Z,12.27
2017-12-24T08:01:58.803Z,13.07
2017-12-24T08:04:27.846Z,13.13
2017-12-24T08:06:55.317Z,11.10
2017-12-24T08:09:23.568Z,11.95
2017-12-24T08:11:51.125Z,12.40
2017-12-24T08:14:18.713Z,12.30
2017-12-24T08:16:46.946Z,12.63
2017-12-24T08:19:14.455Z,13.35
2017-12-24T08:21:41.920Z,13.25
2017-12-24T08:24:09.411Z,11.88
2017-12-24T08:26:36.893Z,13.90
2017-12-24T08:29:04.372Z,11.45
2017-12-24T08:31:32.608Z,14.55
2017-12-24T08:34:00.081Z,13.45
2017-12-24T08:36:27.643Z,15.18
2017-12-24T08:38:55.214Z,12.05
2017-12-24T08:41:23.435Z,12.35
2017-12-24T08:43:50.905Z,13.82
2017-12-24T08:46:18.386Z,14.07
2017-12-24T08:48:45.944Z,13.20
2017-12-24T08:51:13.408Z,14.75
2017-12-24T08:53:42.392Z,14.25
2017-12-24T08:56:09.959Z,12.75
2017-12-24T08:58:37.568Z,14.10
2017-12-24T09:01:05.038Z,12.90
2017-12-24T09:03:32.525Z,14.27
2017-12-24T09:06:00.089Z,13.73
2017-12-24T09:08:27.640Z,15.45
2017-12-24T09:10:55.199Z,13.18
2017-12-24T09:13:22.756Z,12.82
2017-12-24T09:15:50.243Z,15.18
2017-12-24T09:18:18.479Z,15.02
2017-12-24T09:20:46.057Z,14.27
2017-12-24T09:23:15.040Z,13.82
2017-12-24T09:25:42.532Z,15.55
2017-12-24T09:28:10.764Z,14.18
2017-12-24T09:30:38.236Z,12.85
2017-12-24T09:33:06.483Z,13.05
2017-12-24T09:35:33.949Z,15.82
2017-12-24T09:38:01.420Z,14.05
2017-12-24T09:40:28.876Z,14.77
2017-12-24T09:42:56.445Z,11.75
2017-12-24T09:45:23.996Z,14.70
2017-12-24T09:47:51.489Z,14.20
2017-12-24T09:50:18.955Z,13.73
2017-12-24T09:52:46.420Z,13.40
2017-12-24T09:55:13.883Z,12.40
2017-12-24T09:57:41.383Z,13.00
2017-12-24T10:00:08.942Z,14.57
2017-12-24T10:02:36.415Z,12.45
2017-12-24T10:05:04.645Z,14.52
2017-12-24T10:07:32.130Z,12.68
2017-12-24T10:09:59.600Z,12.68
2017-12-24T10:12:27.085Z,12.70
2017-12-24T10:14:54.659Z,13.65
2017-12-24T10:17:22.161Z,12.60
2017-12-24T10:19:49.674Z,12.77
2017-12-24T10:22:17.171Z,13.75
2017-12-24T10:24:44.647Z,12.20
2017-12-24T10:27:12.880Z,11.90
2017-12-24T10:29:40.348Z,9.15
2017-12-24T10:32:07.812Z,12.93
2017-12-24T10:34:35.376Z,12.82
2017-12-24T10:37:02.998Z,11.63
2017-12-24T10:39:30.496Z,12.40
2017-12-24T10:41:57.953Z,13.57
2017-12-24T10:44:25.428Z,12.05
2017-12-24T10:46:53.684Z,10.98
2017-12-24T10:49:21.240Z,12.82
2017-12-24T10:51:48.720Z,12.05
2017-12-24T10:54:16.980Z,11.40
2017-12-24T10:56:44.444Z,12.50
2017-12-24T10:59:12.685Z,12.88
2017-12-24T11:01:40.223Z,11.88
2017-12-24T11:04:07.677Z,11.55
2017-12-24T11:06:35.155Z,12.30
2017-12-24T11:09:02.636Z,11.55
2017-12-24T11:11:30.111Z,11.68
2017-12-24T11:13:57.652Z,11.20
2017-12-24T11:16:25.116Z,12.07
2017-12-24T11:18:52.677Z,12.15
2017-12-24T11:21:20.223Z,12.90
2017-12-24T11:23:47.684Z,9.43
2017-12-24T11:26:15.161Z,11.75
2017-12-24T11:28:43.402Z,11.60
2017-12-24T11:31:10.868Z,10.45
2017-12-24T11:33:38.342Z,11.77
2017-12-24T11:36:06.594Z,12.68
2017-12-24T11:38:34.152Z,12.02
2017-12-24T11:41:01.678Z,12.20
2017-12-24T11:43:29.140Z,12.95
2017-12-24T11:45:56.599Z,12.37
2017-12-24T11:48:24.078Z,10.38
2017-12-24T11:50:51.562Z,11.40
2017-12-24T11:53:19.108Z,11.25
2017-12-24T11:55:46.564Z,11.40
2017-12-24T11:58:14.138Z,11.10
2017-12-24T12:00:41.684Z,11.27
2017-12-24T12:03:09.234Z,9.40
2017-12-24T12:05:36.800Z,10.63
2017-12-24T12:08:04.275Z,12.20
2017-12-24T12:10:32.504Z,11.10
2017-12-24T12:12:59.988Z,9.30
2017-12-24T12:15:27.573Z,11.60
2017-12-24T12:17:55.804Z,10.10
2017-12-24T12:20:23.375Z,10.80
2017-12-24T12:22:50.847Z,10.55
2017-12-24T12:25:18.387Z,11.52
2017-12-24T12:27:45.965Z,10.02
2017-12-24T12:30:13.452Z,10.30
2017-12-24T12:32:40.978Z,10.18
2017-12-24T12:35:08.486Z,10.80
2017-12-24T12:37:35.984Z,9.55
2017-12-24T12:40:03.545Z,10.40
2017-12-24T12:42:31.097Z,11.40
2017-12-24T12:44:58.575Z,11.63
2017-12-24T12:47:26.083Z,11.00
2017-12-24T12:49:53.586Z,9.88
2017-12-24T12:52:21.037Z,9.77
2017-12-24T12:54:48.500Z,10.80
2017-12-24T12:57:16.770Z,10.02
2017-12-24T12:59:44.232Z,9.60
2017-12-24T13:02:11.777Z,9.48
2017-12-24T13:04:39.246Z,9.77
2017-12-24T13:07:06.789Z,10.32
2017-12-24T13:09:34.244Z,9.73
2017-12-24T13:12:01.805Z,8.93
2017-12-24T13:14:29.386Z,9.70
2017-12-24T13:16:57.636Z,9.95
2017-12-24T13:19:25.212Z,9.32
2017-12-24T13:21:52.822Z,9.43
2017-12-24T13:24:20.312Z,10.38
2017-12-24T13:26:47.776Z,10.32
2017-12-24T13:29:15.243Z,9.82
2017-12-24T13:31:42.797Z,9.82
2017-12-24T13:34:10.321Z,8.18
2017-12-24T13:36:37.804Z,8.35
2017-12-24T13:39:05.373Z,8.57
2017-12-24T13:41:32.920Z,8.55
2017-12-24T13:44:00.392Z,7.87
2017-12-24T13:46:27.872Z,9.85
2017-12-24T13:48:56.100Z,8.00
2017-12-24T13:51:23.669Z,8.50
2017-12-24T13:53:51.140Z,8.25
2017-12-24T13:56:19.369Z,7.70
2017-12-24T13:58:46.860Z,7.95
2017-12-24T14:01:14.416Z,9.02
2017-12-24T14:03:41.892Z,8.25
2017-12-24T14:06:10.129Z,8.20
2017-12-24T14:08:37.577Z,8.77
2017-12-24T14:11:05.054Z,7.75
2017-12-24T14:13:32.516Z,7.35
2017-12-24T14:16:00.014Z,7.37
2017-12-24T14:18:27.494Z,7.47
2017-12-24T14:20:54.956Z,6.15
2017-12-24T14:23:22.509Z,8.05
2017-12-24T14:25:49.993Z,7.03
2017-12-24T14:28:17.439Z,7.43
2017-12-24T14:30:44.904Z,7.97
2017-12-24T14:33:12.376Z,6.82
2017-12-24T14:35:39.852Z,6.75
2017-12-24T14:38:08.120Z,5.82
2017-12-24T14:40:35.662Z,5.05
2017-12-24T14:43:03.290Z,6.47
2017-12-24T14:45:30.796Z,6.07
2017-12-24T14:47:58.344Z,6.20
2017-12-24T14:50:25.799Z,7.35
2017-12-24T14:52:54.081Z,6.25
2017-12-24T14:55:21.540Z,5.72
2017-12-24T14:57:49.095Z,6.20
2017-12-24T15:00:16.654Z,5.50
2017-12-24T15:02:44.117Z,5.60
2017-12-24T15:05:11.582Z,5.65
2017-12-24T15:07:39.836Z,5.85
2017-12-24T15:10:07.409Z,6.37
2017-12-24T15:12:34.877Z,5.37
2017-12-24T15:15:03.103Z,5.72
2017-12-24T15:17:30.587Z,4.82
2017-12-24T15:19:58.051Z,5.50
2017-12-24T15:22:25.517Z,5.12
2017-12-24T15:24:53.736Z,5.60
2017-12-24T15:27:21.235Z,5.12
2017-12-24T15:29:48.700Z,6.03
2017-12-24T15:32:16.972Z,4.80
2017-12-24T15:34:44.480Z,4.95
2017-12-24T15:37:11.933Z,4.45
2017-12-24T15:39:39.392Z,4.95
2017-12-24T15:42:06.897Z,4.72
2017-12-24T15:44:34.461Z,4.97
2017-12-24T15:47:02.007Z,3.65
2017-12-24T15:49:29.456Z,4.57
2017-12-24T15:51:56.916Z,4.45
2017-12-24T15:54:24.378Z,4.50
2017-12-24T15:56:51.831Z,4.93
2017-12-24T15:59:19.297Z,4.37
2017-12-24T16:01:47.532Z,4.70
2017-12-24T16:04:14.992Z,4.10
2017-12-24T16:06:42.457Z,4.25
2017-12-24T16:09:09.998Z,4.25
2017-12-24T16:11:37.460Z,4.72
2017-12-24T16:14:04.965Z,4.18
2017-12-24T16:16:32.420Z,3.53
2017-12-24T16:18:59.969Z,4.05
2017-12-24T16:21:27.428Z,3.37
2017-12-24T16:23:54.979Z,3.60
2017-12-24T16:26:22.502Z,4.07
2017-12-24T16:28:49.999Z,4.50
2017-12-24T16:31:18.985Z,3.70
2017-12-24T16:33:46.544Z,3.10
2017-12-24T16:36:14.012Z,3.45
2017-12-24T16:38:41.470Z,2.92
2017-12-24T16:41:09.011Z,3.60
2017-12-24T16:43:36.482Z,3.15
2017-12-24T16:46:03.943Z,3.30
2017-12-24T16:48:31.489Z,3.45
2017-12-24T16:50:59.763Z,2.50
2017-12-24T16:53:27.327Z,2.83
2017-12-24T16:55:54.888Z,2.85
2017-12-24T16:58:22.436Z,2.62
2017-12-24T17:00:50.019Z,2.97
2017-12-24T17:03:17.568Z,4.95
2017-12-24T17:05:45.030Z,3.45
2017-12-24T17:08:12.491Z,3.00
2017-12-24T17:10:40.774Z,2.53
2017-12-24T17:13:09.030Z,2.75
2017-12-24T17:15:36.492Z,2.90
2017-12-24T17:18:03.964Z,2.37
2017-12-24T17:20:32.211Z,2.08
2017-12-24T17:22:59.698Z,2.17
2017-12-24T17:25:28.056Z,2.35
2017-12-24T17:27:55.613Z,3.47
2017-12-24T17:30:23.082Z,3.08
2017-12-24T17:32:50.559Z,2.47
2017-12-24T17:35:18.784Z,3.10
2017-12-24T17:37:46.276Z,2.78
2017-12-24T17:40:13.829Z,2.53
2017-12-24T17:42:41.284Z,2.12
2017-12-24T17:45:08.748Z,2.85
2017-12-24T17:47:36.977Z,3.40
2017-12-24T17:50:04.456Z,2.55
2017-12-24T17:52:32.142Z,2.97
2017-12-24T17:55:00.409Z,2.22
2017-12-24T17:57:27.913Z,2.30
2017-12-24T17:59:55.473Z,2.55
2017-12-24T18:02:22.940Z,2.55
2017-12-24T18:04:50.429Z,2.67
2017-12-24T18:07:17.926Z,2.22
2017-12-24T18:09:45.439Z,2.72
2017-12-24T18:12:12.915Z,2.62
2017-12-24T18:14:41.140Z,2.25
2017-12-24T18:17:08.595Z,3.25
2017-12-24T18:19:36.051Z,2.12
2017-12-24T18:22:03.503Z,2.92
2017-12-24T18:24:30.995Z,3.03
2017-12-24T18:26:58.462Z,2.65
2017-12-24T18:29:25.975Z,2.62
2017-12-24T18:31:53.431Z,3.25
2017-12-24T18:34:20.891Z,3.37
2017-12-24T18:36:48.358Z,5.80
2017-12-24T18:39:15.860Z,3.05
2017-12-24T18:41:43.402Z,3.85
2017-12-24T18:44:10.962Z,3.90
2017-12-24T18:46:38.430Z,3.08
2017-12-24T18:49:05.951Z,2.78
2017-12-24T18:51:33.436Z,3.17
2017-12-24T18:54:01.656Z,4.57
2017-12-24T18:56:29.158Z,3.75
2017-12-24T18:58:56.645Z,6.90
2017-12-24T19:01:24.864Z,5.35
2017-12-24T19:03:52.347Z,4.03
2017-12-24T19:06:19.809Z,3.92
2017-12-24T19:08:47.364Z,4.18
2017-12-24T19:11:14.883Z,4.25
2017-12-24T19:13:42.381Z,5.50
2017-12-24T19:16:09.835Z,3.85
2017-12-24T19:18:37.296Z,4.00
2017-12-24T19:21:04.774Z,4.22
2017-12-24T19:23:33.003Z,3.60
2017-12-24T19:26:00.468Z,4.45
2017-12-24T19:28:27.932Z,4.47
2017-12-24T19:30:55.396Z,5.80
2017-12-24T19:33:22.913Z,4.22
2017-12-24T19:35:50.411Z,4.12
2017-12-24T19:38:17.864Z,4.18
2017-12-24T19:40:45.321Z,4.03
2017-12-24T19:43:13.045Z,5.40
2017-12-24T19:45:40.518Z,4.65
2017-12-24T19:48:08.003Z,5.12
2017-12-24T19:50:35.565Z,5.10
2017-12-24T19:53:03.016Z,5.47
2017-12-24T19:55:30.572Z,4.82
2017-12-24T19:57:58.132Z,5.65
2017-12-24T20:00:25.592Z,6.03
2017-12-24T20:02:53.048Z,5.55
2017-12-24T20:05:20.508Z,5.43
2017-12-24T20:07:48.063Z,5.57
2017-12-24T20:10:15.685Z,5.50
2017-12-24T20:12:43.146Z,5.18
2017-12-24T20:15:10.649Z,5.80
2017-12-24T20:17:38.088Z,6.30
2017-12-24T20:20:05.560Z,6.50
2017-12-24T20:22:33.024Z,6.85
2017-12-24T20:25:01.255Z,6.20
2017-12-24T20:27:28.799Z,6.03
2017-12-24T20:29:56.243Z,6.00
2017-12-24T20:32:23.705Z,6.35
2017-12-24T20:34:51.373Z,6.90
2017-12-24T20:37:18.875Z,6.12
2017-12-24T20:39:46.338Z,6.40
2017-12-24T20:42:13.804Z,5.15
2017-12-24T20:44:42.027Z,7.05
2017-12-24T20:47:09.530Z,6.05
2017-12-24T20:49:37.010Z,5.90
2017-12-24T20:52:04.485Z,7.40
2017-12-24T20:54:31.943Z,8.35
2017-12-24T20:56:59.414Z,8.73
2017-12-24T20:59:26.961Z,6.47
2017-12-24T21:01:54.459Z,6.90
2017-12-24T21:04:21.917Z,7.45
2017-12-24T21:06:49.481Z,6.55
2017-12-24T21:09:16.980Z,7.70
2017-12-24T21:11:44.440Z,7.05
2017-12-24T21:14:11.906Z,6.72
2017-12-24T21:16:39.373Z,7.35
2017-12-24T21:19:06.840Z,7.93
2017-12-24T21:21:34.292Z,7.20
2017-12-24T21:24:01.790Z,6.85
2017-12-24T21:26:29.250Z,8.18
2017-12-24T21:28:57.565Z,7.72
2017-12-24T21:31:25.023Z,7.07
2017-12-24T21:33:52.546Z,8.20
2017-12-24T21:36:20.814Z,6.03
2017-12-24T21:38:49.035Z,7.32
2017-12-24T21:41:16.505Z,7.30
2017-12-24T21:43:43.962Z,6.75
2017-12-24T21:46:11.434Z,6.78
2017-12-24T21:48:38.888Z,7.30
2017-12-24T21:51:06.358Z,7.35
2017-12-24T21:53:33.830Z,7.60
2017-12-24T21:56:02.052Z,6.78
2017-12-24T21:58:29.531Z,6.70
2017-12-24T22:00:57.013Z,7.32
2017-12-24T22:03:24.564Z,6.07
2017-12-24T22:05:52.044Z,6.57
2017-12-24T22:08:20.259Z,5.20
2017-12-24T22:10:47.744Z,7.15
2017-12-24T22:13:15.310Z,6.40
2017-12-24T22:15:42.782Z,6.20
2017-12-24T22:18:11.021Z,6.65
2017-12-24T22:20:38.492Z,5.45
2017-12-24T22:23:06.063Z,7.12
2017-12-24T22:25:33.520Z,6.30
2017-12-24T22:28:00.980Z,6.62
2017-12-24T22:30:28.440Z,6.03
2017-12-24T22:32:56.694Z,6.53
2017-12-24T22:35:24.251Z,7.12
2017-12-24T22:37:51.818Z,7.47
2017-12-24T22:40:19.281Z,6.00
2017-12-24T22:42:47.508Z,5.72
2017-12-24T22:45:14.971Z,6.12
2017-12-24T22:47:42.437Z,5.18
2017-12-24T22:50:09.909Z,5.32
2017-12-24T22:52:37.371Z,5.80
2017-12-24T22:55:04.826Z,4.25
2017-12-24T22:57:32.302Z,6.05
2017-12-24T23:00:00.540Z,6.32
2017-12-24T23:02:28.011Z,6.30
2017-12-24T23:04:55.576Z,5.60
2017-12-24T23:07:23.038Z,6.82
2017-12-24T23:09:50.506Z,5.12
2017-12-24T23:12:18.777Z,5.93
2017-12-24T23:14:46.319Z,5.70
2017-12-24T23:17:13.781Z,6.45
2017-12-24T23:19:41.243Z,5.32
2017-12-24T23:22:08.792Z,5.20
2017-12-24T23:24:36.244Z,5.75
2017-12-24T23:27:03.730Z,5.82
2017-12-24T23:29:31.259Z,5.80
2017-12-24T23:31:58.841Z,5.18
2017-12-24T23:34:26.317Z,5.12
2017-12-24T23:36:54.560Z,5.25
2017-12-24T23:39:22.806Z,6.47
2017-12-24T23:41:50.272Z,6.03
2017-12-24T23:44:17.731Z,5.75
2017-12-24T23:46:45.215Z,4.47
2017-12-24T23:49:12.690Z,6.15
2017-12-24T23:51:40.934Z,5.15
2017-12-24T23:54:08.500Z,5.30
2017-12-24T23:56:36.055Z,5.18
2017-12-24T23:59:03.622Z,4.95
